createdAt,value
2018-03-30T00:00:05.668Z,78.70
2018-03-30T00:02:33.544Z,78.45
2018-03-30T00:05:01.132Z,79.16
2018-03-30T00:07:28.688Z,79.47
2018-03-30T00:09:56.371Z,79.25
2018-03-30T00:12:24.192Z,78.99
2018-03-30T00:14:51.995Z,79.61
2018-03-30T00:17:20.043Z,79.12
2018-03-30T00:19:47.695Z,78.67
2018-03-30T00:22:18.667Z,79.06
2018-03-30T00:24:47.482Z,78.82
2018-03-30T00:27:15.893Z,78.98
2018-03-30T00:29:44.548Z,78.44
2018-03-30T00:32:13.718Z,78.89
2018-03-30T00:34:41.240Z,79.11
2018-03-30T00:37:08.904Z,78.56
2018-03-30T00:39:37.799Z,78.29
2018-03-30T00:42:05.368Z,78.86
2018-03-30T00:44:34.118Z,79.44
2018-03-30T00:47:01.725Z,78.88
2018-03-30T00:49:32.309Z,78.71
2018-03-30T00:52:01.129Z,78.55
2018-03-30T00:54:29.033Z,79.52
2018-03-30T00:56:57.050Z,78.94
2018-03-30T00:59:25.431Z,78.40
2018-03-30T01:01:54.882Z,78.50
2018-03-30T01:04:23.613Z,78.64
2018-03-30T01:06:51.996Z,78.16
2018-03-30T01:09:19.526Z,78.33
2018-03-30T01:11:47.315Z,78.50
2018-03-30T01:14:14.881Z,78.92
2018-03-30T01:16:42.435Z,78.59
2018-03-30T01:19:09.983Z,78.46
2018-03-30T01:21:38.296Z,78.43
2018-03-30T01:24:05.803Z,78.18
2018-03-30T01:26:33.359Z,78.29
2018-03-30T01:29:00.890Z,78.07
2018-03-30T01:31:28.456Z,78.18
2018-03-30T01:33:56.001Z,78.14
2018-03-30T01:36:23.551Z,78.13
2018-03-30T01:38:51.097Z,78.08
2018-03-30T01:41:18.740Z,78.46
2018-03-30T01:43:46.259Z,78.45
2018-03-30T01:46:13.812Z,78.26
2018-03-30T01:48:41.346Z,78.78
2018-03-30T01:51:08.896Z,78.34
2018-03-30T01:53:36.452Z,78.86
2018-03-30T01:56:04.044Z,78.68
2018-03-30T01:58:31.571Z,79.66
2018-03-30T02:00:59.147Z,79.22
2018-03-30T02:03:26.667Z,78.74
2018-03-30T02:05:54.195Z,79.47
2018-03-30T02:08:21.748Z,79.22
2018-03-30T02:10:49.279Z,78.83
2018-03-30T02:13:16.851Z,80.23
2018-03-30T02:15:44.380Z,78.93
2018-03-30T02:18:11.955Z,79.72
2018-03-30T02:20:39.494Z,79.96
2018-03-30T02:23:07.142Z,79.40
2018-03-30T02:25:34.668Z,78.99
2018-03-30T02:28:02.221Z,78.97
2018-03-30T02:30:29.764Z,79.44
2018-03-30T02:32:57.329Z,79.47
2018-03-30T02:35:24.876Z,79.82
2018-03-30T02:37:52.485Z,79.82
2018-03-30T02:40:20.009Z,79.51
2018-03-30T02:42:47.595Z,79.68
2018-03-30T02:45:15.134Z,78.83
2018-03-30T02:47:42.883Z,79.44
2018-03-30T02:50:10.474Z,80.01
2018-03-30T02:52:38.033Z,79.95
2018-03-30T02:55:05.576Z,79.11
2018-03-30T02:57:33.157Z,78.91
2018-03-30T03:00:00.735Z,78.65
2018-03-30T03:02:28.294Z,79.10
2018-03-30T03:04:55.824Z,79.23
2018-03-30T03:07:23.412Z,80.87
2018-03-30T03:09:50.927Z,79.58
2018-03-30T03:12:18.501Z,79.10
2018-03-30T03:14:46.020Z,79.19
2018-03-30T03:17:13.650Z,79.54
2018-03-30T03:19:41.516Z,79.28
2018-03-30T03:22:09.075Z,78.90
2018-03-30T03:24:36.600Z,79.13
2018-03-30T03:27:04.151Z,79.94
2018-03-30T03:29:31.679Z,79.58
2018-03-30T03:31:59.251Z,79.63
2018-03-30T03:34:26.772Z,79.79
2018-03-30T03:36:54.319Z,80.57
2018-03-30T03:39:21.890Z,80.51
2018-03-30T03:41:49.446Z,80.55
2018-03-30T03:44:17.016Z,80.31
2018-03-30T03:46:44.569Z,79.97
2018-03-30T03:49:12.123Z,79.26
2018-03-30T03:51:40.553Z,81.38
2018-03-30T03:54:08.169Z,80.65
2018-03-30T03:56:35.706Z,80.82
2018-03-30T03:59:03.279Z,80.82
2018-03-30T04:01:30.810Z,80.08
2018-03-30T04:03:58.378Z,79.84
2018-03-30T04:06:25.912Z,80.33
2018-03-30T04:08:53.464Z,80.09
2018-03-30T04:11:20.992Z,80.56
2018-03-30T04:13:48.638Z,81.76
2018-03-30T04:16:16.197Z,81.17
2018-03-30T04:18:43.767Z,80.84
2018-03-30T04:21:11.320Z,80.38
2018-03-30T04:23:38.878Z,79.98
2018-03-30T04:26:06.404Z,81.35
2018-03-30T04:28:34.047Z,80.68
2018-03-30T04:31:01.564Z,80.48
2018-03-30T04:33:29.111Z,80.05
2018-03-30T04:35:56.635Z,81.54
2018-03-30T04:38:24.183Z,80.65
2018-03-30T04:40:51.725Z,80.81
2018-03-30T04:43:19.292Z,80.26
2018-03-30T04:45:46.820Z,80.59
2018-03-30T04:48:14.371Z,79.80
2018-03-30T04:50:41.930Z,79.94
2018-03-30T04:53:09.479Z,80.03
2018-03-30T04:55:36.998Z,80.36
2018-03-30T04:58:04.559Z,80.90
2018-03-30T05:00:32.077Z,82.18
2018-03-30T05:02:59.641Z,81.10
2018-03-30T05:05:27.159Z,81.80
2018-03-30T05:07:54.787Z,82.14
2018-03-30T05:10:22.262Z,81.61
2018-03-30T05:12:49.798Z,80.91
2018-03-30T05:15:17.355Z,81.12
2018-03-30T05:17:44.896Z,80.75
2018-03-30T05:20:12.456Z,81.22
2018-03-30T05:22:39.992Z,80.55
2018-03-30T05:25:07.560Z,80.30
2018-03-30T05:27:35.079Z,80.60
2018-03-30T05:30:02.627Z,80.49
2018-03-30T05:32:30.165Z,80.58
2018-03-30T05:34:57.739Z,80.11
2018-03-30T05:37:25.263Z,80.23
2018-03-30T05:39:52.825Z,79.94
2018-03-30T05:42:20.344Z,80.11
2018-03-30T05:44:47.928Z,80.03
2018-03-30T05:47:15.452Z,80.23
2018-03-30T05:49:42.999Z,80.37
2018-03-30T05:52:10.523Z,80.63
2018-03-30T05:54:38.087Z,81.03
2018-03-30T05:57:05.608Z,80.96
2018-03-30T05:59:33.165Z,81.18
2018-03-30T06:02:00.712Z,81.20
2018-03-30T06:04:28.270Z,81.39
2018-03-30T06:06:55.849Z,80.97
2018-03-30T06:09:23.898Z,81.71
2018-03-30T06:11:51.420Z,80.98
2018-03-30T06:14:18.982Z,81.25
2018-03-30T06:16:46.598Z,81.12
2018-03-30T06:19:14.673Z,81.33
2018-03-30T06:21:42.214Z,81.47
2018-03-30T06:24:09.792Z,81.70
2018-03-30T06:26:37.388Z,81.43
2018-03-30T06:29:05.067Z,81.70
2018-03-30T06:31:32.678Z,80.77
2018-03-30T06:34:00.244Z,82.49
2018-03-30T06:36:27.775Z,81.48
2018-03-30T06:38:55.327Z,81.49
2018-03-30T06:41:24.184Z,81.34
2018-03-30T06:43:51.730Z,80.72
2018-03-30T06:46:19.255Z,80.98
2018-03-30T06:48:46.794Z,81.84
2018-03-30T06:51:14.419Z,81.21
2018-03-30T06:53:42.254Z,81.17
2018-03-30T06:56:09.838Z,81.58
2018-03-30T06:58:37.692Z,81.23
2018-03-30T07:01:07.116Z,81.43
2018-03-30T07:03:34.866Z,80.75
2018-03-30T07:06:02.624Z,80.80
2018-03-30T07:08:30.253Z,80.81
2018-03-30T07:10:57.821Z,80.65
2018-03-30T07:13:25.359Z,80.58
2018-03-30T07:15:53.110Z,80.57
2018-03-30T07:18:20.639Z,80.54
2018-03-30T07:20:48.235Z,80.58
2018-03-30T07:23:15.841Z,80.43
2018-03-30T07:25:43.410Z,79.85
2018-03-30T07:28:10.971Z,79.95
2018-03-30T07:30:38.523Z,80.47
2018-03-30T07:33:06.080Z,79.55
2018-03-30T07:35:33.630Z,79.96
2018-03-30T07:38:01.165Z,80.03
2018-03-30T07:40:28.723Z,79.70
2018-03-30T07:42:56.251Z,79.65
2018-03-30T07:45:23.806Z,79.46
2018-03-30T07:47:51.316Z,79.21
2018-03-30T07:50:18.872Z,78.87
2018-03-30T07:52:46.417Z,79.17
2018-03-30T07:55:13.977Z,78.20
2018-03-30T07:57:41.536Z,78.54
2018-03-30T08:00:09.092Z,77.78
2018-03-30T08:02:36.604Z,77.89
2018-03-30T08:05:04.914Z,77.82
2018-03-30T08:07:32.444Z,77.29
2018-03-30T08:10:00.014Z,77.58
2018-03-30T08:12:27.551Z,77.20
2018-03-30T08:14:55.116Z,76.78
2018-03-30T08:17:22.638Z,76.49
2018-03-30T08:19:50.225Z,76.91
2018-03-30T08:22:17.896Z,76.00
2018-03-30T08:24:45.411Z,75.67
2018-03-30T08:27:18.077Z,75.55
2018-03-30T08:29:46.652Z,75.21
2018-03-30T08:32:14.199Z,74.70
2018-03-30T08:34:41.729Z,74.01
2018-03-30T08:37:10.548Z,74.15
2018-03-30T08:39:38.139Z,73.54
2018-03-30T08:42:05.694Z,73.18
2018-03-30T08:44:33.314Z,73.03
2018-03-30T08:47:00.867Z,72.85
2018-03-30T08:49:28.398Z,71.69
2018-03-30T08:51:55.948Z,71.28
2018-03-30T08:54:23.522Z,69.34
2018-03-30T08:56:51.084Z,69.79
2018-03-30T08:59:21.757Z,70.04
2018-03-30T09:01:53.081Z,68.77
2018-03-30T09:04:25.468Z,67.37
2018-03-30T09:06:53.375Z,66.94
2018-03-30T09:09:20.912Z,66.83
2018-03-30T09:11:48.462Z,66.16
2018-03-30T09:14:16.825Z,66.51
2018-03-30T09:16:44.383Z,65.98
2018-03-30T09:19:11.900Z,66.53
2018-03-30T09:21:42.735Z,65.22
2018-03-30T09:24:13.193Z,65.62
2018-03-30T09:26:40.932Z,64.91
2018-03-30T09:29:08.482Z,63.45
2018-03-30T09:31:36.874Z,62.66
2018-03-30T09:34:05.200Z,62.32
2018-03-30T09:36:32.891Z,62.40
2018-03-30T09:39:01.193Z,62.08
2018-03-30T09:41:28.918Z,61.50
2018-03-30T09:43:56.660Z,60.50
2018-03-30T09:46:24.268Z,58.10
2018-03-30T09:48:51.898Z,58.93
2018-03-30T09:51:19.812Z,59.44
2018-03-30T09:53:47.762Z,59.01
2018-03-30T09:56:15.497Z,59.43
2018-03-30T09:58:43.101Z,59.28
2018-03-30T10:01:16.536Z,58.74
2018-03-30T10:03:49.890Z,58.73
2018-03-30T10:06:18.304Z,58.68
2018-03-30T10:08:46.167Z,57.93
2018-03-30T10:11:13.991Z,58.49
2018-03-30T10:13:41.533Z,57.62
2018-03-30T10:16:09.128Z,57.45
2018-03-30T10:18:36.693Z,57.21
2018-03-30T10:21:04.196Z,57.97
2018-03-30T10:23:33.577Z,57.23
2018-03-30T10:26:01.223Z,56.90
2018-03-30T10:28:29.685Z,56.74
2018-03-30T10:30:57.236Z,56.72
2018-03-30T10:33:24.809Z,57.63
2018-03-30T10:35:52.501Z,56.74
2018-03-30T10:38:20.051Z,54.90
2018-03-30T10:40:47.575Z,56.02
2018-03-30T10:43:15.764Z,55.12
2018-03-30T10:45:43.284Z,54.60
2018-03-30T10:48:10.828Z,54.30
2018-03-30T10:50:38.341Z,55.56
2018-03-30T10:53:05.912Z,55.38
2018-03-30T10:55:34.407Z,55.55
2018-03-30T10:58:03.002Z,54.45
2018-03-30T11:00:30.517Z,55.03
2018-03-30T11:02:58.077Z,54.34
2018-03-30T11:05:25.614Z,55.04
2018-03-30T11:07:53.179Z,55.29
2018-03-30T11:10:20.694Z,54.40
2018-03-30T11:12:48.256Z,55.02
2018-03-30T11:15:15.821Z,53.64
2018-03-30T11:17:43.383Z,54.79
2018-03-30T11:20:10.908Z,54.30
2018-03-30T11:22:43.054Z,53.16
2018-03-30T11:25:10.731Z,53.54
2018-03-30T11:27:38.296Z,52.95
2018-03-30T11:30:05.889Z,54.26
2018-03-30T11:32:34.158Z,53.51
2018-03-30T11:35:01.675Z,53.33
2018-03-30T11:37:29.798Z,52.86
2018-03-30T11:39:57.446Z,52.07
2018-03-30T11:42:25.037Z,52.68
2018-03-30T11:44:53.705Z,54.11
2018-03-30T11:47:21.836Z,53.94
2018-03-30T11:49:50.564Z,53.66
2018-03-30T11:52:18.116Z,52.58
2018-03-30T11:54:45.640Z,52.31
2018-03-30T11:57:13.219Z,52.84
2018-03-30T11:59:42.182Z,53.55
2018-03-30T12:02:10.591Z,52.38
2018-03-30T12:04:45.430Z,52.29
2018-03-30T12:07:16.808Z,51.36
2018-03-30T12:09:49.632Z,52.31
2018-03-30T12:12:22.666Z,52.09
2018-03-30T12:14:52.769Z,52.38
2018-03-30T12:20:00.585Z,51.55
2018-03-30T12:22:32.547Z,51.60
2018-03-30T12:25:05.570Z,51.13
2018-03-30T12:27:38.288Z,50.47
2018-03-30T12:30:11.248Z,50.30
2018-03-30T12:32:43.952Z,50.97
2018-03-30T12:35:16.592Z,51.03
2018-03-30T12:37:50.766Z,52.11
2018-03-30T12:40:25.272Z,52.51
2018-03-30T12:45:34.372Z,52.18
2018-03-30T12:50:51.095Z,51.02
2018-03-30T12:53:20.150Z,51.74
2018-03-30T12:55:49.584Z,52.61
2018-03-30T12:58:20.353Z,52.05
2018-03-30T13:00:48.711Z,52.54
2018-03-30T13:03:18.171Z,53.33
2018-03-30T13:05:46.151Z,55.08
2018-03-30T13:08:13.734Z,57.46
2018-03-30T13:10:42.157Z,59.36
2018-03-30T13:13:09.783Z,58.55
2018-03-30T13:15:37.393Z,59.59
2018-03-30T13:18:04.921Z,59.57
2018-03-30T13:20:32.487Z,60.46
2018-03-30T13:23:01.777Z,59.82
2018-03-30T13:25:29.752Z,60.53
2018-03-30T13:27:57.286Z,61.64
2018-03-30T13:30:25.684Z,62.17
2018-03-30T13:32:53.203Z,63.24
2018-03-30T13:35:20.763Z,64.56
2018-03-30T13:37:48.310Z,66.40
2018-03-30T13:40:15.864Z,66.34
2018-03-30T13:42:46.380Z,68.36
2018-03-30T13:45:14.090Z,67.96
2018-03-30T13:47:42.972Z,69.19
2018-03-30T13:50:10.693Z,70.17
2018-03-30T13:52:41.873Z,69.78
2018-03-30T13:55:10.326Z,71.31
2018-03-30T13:57:49.099Z,72.45
2018-03-30T14:00:21.200Z,73.32
2018-03-30T14:02:53.495Z,75.87
2018-03-30T14:05:26.256Z,74.47
2018-03-30T14:08:01.573Z,75.43
2018-03-30T14:10:31.130Z,76.86
2018-03-30T14:13:01.522Z,76.12
2018-03-30T14:15:34.650Z,76.39
2018-03-30T14:18:06.549Z,78.00
2018-03-30T14:20:34.127Z,77.96
2018-03-30T14:23:18.332Z,79.22
2018-03-30T14:25:54.551Z,77.92
2018-03-30T14:28:24.961Z,80.08
2018-03-30T14:33:54.188Z,78.91
2018-03-30T14:39:24.492Z,79.27
2018-03-30T14:41:52.078Z,79.85
2018-03-30T14:44:24.456Z,80.21
2018-03-30T14:46:55.300Z,78.33
2018-03-30T14:49:26.186Z,80.27
2018-03-30T14:51:59.638Z,82.10
2018-03-30T14:54:42.536Z,80.53
2018-03-30T14:57:28.828Z,79.43
2018-03-30T14:59:57.251Z,79.47
2018-03-30T15:02:36.305Z,79.70
2018-03-30T15:05:21.889Z,79.57
2018-03-30T15:08:00.786Z,80.00
2018-03-30T15:10:36.415Z,79.88
2018-03-30T15:13:11.740Z,80.30
2018-03-30T15:16:10.376Z,80.70
2018-03-30T15:18:42.975Z,80.10
2018-03-30T15:21:17.906Z,80.43
2018-03-30T15:23:54.726Z,83.29
2018-03-30T15:29:38.817Z,80.22
2018-03-30T15:32:15.316Z,80.65
2018-03-30T15:34:47.280Z,80.74
2018-03-30T15:37:18.882Z,80.42
2018-03-30T15:39:49.608Z,81.40
2018-03-30T15:42:21.435Z,82.04
2018-03-30T15:44:52.987Z,82.04
2018-03-30T15:47:24.215Z,81.43
2018-03-30T15:49:52.862Z,81.37
2018-03-30T15:52:25.723Z,81.93
2018-03-30T15:55:02.192Z,82.74
2018-03-30T15:57:41.569Z,82.11
2018-03-30T16:00:15.335Z,82.27
2018-03-30T16:02:49.159Z,84.50
2018-03-30T16:05:21.694Z,83.27
2018-03-30T16:07:51.499Z,83.68
2018-03-30T16:10:24.300Z,82.37
2018-03-30T16:12:53.954Z,81.74
2018-03-30T16:15:27.109Z,82.18
2018-03-30T16:17:58.627Z,82.00
2018-03-30T16:20:26.592Z,82.75
2018-03-30T16:22:56.418Z,83.31
2018-03-30T16:25:25.063Z,84.63
2018-03-30T16:27:55.180Z,84.43
2018-03-30T16:30:26.218Z,83.82
2018-03-30T16:32:53.905Z,83.42
2018-03-30T16:35:22.186Z,84.33
2018-03-30T16:37:51.423Z,85.09
2018-03-30T16:40:18.440Z,85.38
2018-03-30T16:42:48.969Z,84.23
2018-03-30T16:45:19.197Z,84.89
2018-03-30T16:47:48.222Z,85.50
2018-03-30T16:50:19.400Z,83.73
2018-03-30T16:52:48.455Z,83.90
2018-03-30T16:55:17.997Z,85.00
2018-03-30T17:00:21.527Z,84.89
2018-03-30T17:05:23.473Z,83.52
2018-03-30T17:07:58.308Z,83.67
2018-03-30T17:10:29.795Z,82.95
2018-03-30T17:12:59.333Z,82.75
2018-03-30T17:15:28.425Z,83.49
2018-03-30T17:17:58.727Z,82.78
2018-03-30T17:20:27.940Z,82.75
2018-03-30T17:23:02.164Z,83.36
2018-03-30T17:25:34.430Z,84.48
2018-03-30T17:30:39.125Z,84.56
2018-03-30T17:33:10.791Z,83.79
2018-03-30T17:35:41.531Z,84.25
2018-03-30T17:38:11.924Z,83.40
2018-03-30T17:40:44.496Z,84.44
2018-03-30T17:43:13.832Z,83.76
2018-03-30T17:45:44.687Z,83.01
2018-03-30T17:48:14.647Z,83.10
2018-03-30T17:50:46.364Z,83.16
2018-03-30T17:53:16.165Z,82.95
2018-03-30T17:55:47.596Z,84.73
2018-03-30T17:58:19.506Z,84.75
2018-03-30T18:00:49.731Z,84.43
2018-03-30T18:03:18.738Z,83.25
2018-03-30T18:05:46.165Z,83.92
2018-03-30T18:08:14.156Z,83.66
2018-03-30T18:10:41.171Z,83.46
2018-03-30T18:13:08.158Z,83.15
2018-03-30T18:15:35.584Z,82.66
2018-03-30T18:18:05.838Z,82.65
2018-03-30T18:20:34.677Z,82.54
2018-03-30T18:23:07.747Z,83.02
2018-03-30T18:25:35.495Z,82.60
2018-03-30T18:28:03.002Z,82.53
2018-03-30T18:30:38.581Z,83.31
2018-03-30T18:33:08.249Z,83.28
2018-03-30T18:35:37.766Z,83.65
2018-03-30T18:38:07.817Z,83.95
2018-03-30T18:40:39.850Z,83.83
2018-03-30T18:43:07.637Z,83.42
2018-03-30T18:45:39.667Z,83.25
2018-03-30T18:48:11.259Z,82.89
2018-03-30T18:50:42.373Z,82.88
2018-03-30T18:53:13.986Z,83.41
2018-03-30T18:55:43.703Z,83.42
2018-03-30T18:58:14.944Z,83.23
2018-03-30T19:00:44.255Z,83.15
2018-03-30T19:03:16.224Z,83.27
2018-03-30T19:05:45.844Z,83.70
2018-03-30T19:08:13.374Z,83.91
2018-03-30T19:10:43.039Z,84.02
2018-03-30T19:13:11.106Z,84.47
2018-03-30T19:15:39.337Z,83.88
2018-03-30T19:18:06.698Z,83.67
2018-03-30T19:20:34.031Z,83.94
2018-03-30T19:23:01.345Z,84.02
2018-03-30T19:25:28.400Z,83.77
2018-03-30T19:27:55.513Z,83.42
2018-03-30T19:30:23.078Z,83.54
2018-03-30T19:32:50.508Z,84.70
2018-03-30T19:35:18.331Z,84.31
2018-03-30T19:37:45.443Z,84.73
2018-03-30T19:40:12.437Z,83.92
2018-03-30T19:42:39.923Z,83.84
2018-03-30T19:45:07.040Z,84.08
2018-03-30T19:47:34.053Z,83.83
2018-03-30T19:50:01.039Z,83.69
2018-03-30T19:52:28.066Z,84.00
2018-03-30T19:54:55.271Z,83.70
2018-03-30T19:57:22.301Z,83.83
2018-03-30T19:59:49.293Z,83.94
2018-03-30T20:02:16.315Z,83.75
2018-03-30T20:04:44.615Z,83.73
2018-03-30T20:07:11.980Z,83.47
2018-03-30T20:09:39.715Z,83.93
2018-03-30T20:12:06.884Z,84.12
2018-03-30T20:14:38.831Z,83.99
2018-03-30T20:17:07.248Z,83.44
2018-03-30T20:19:34.377Z,82.97
2018-03-30T20:22:02.257Z,83.19
2018-03-30T20:24:29.700Z,83.22
2018-03-30T20:26:58.416Z,84.12
2018-03-30T20:29:25.444Z,83.59
2018-03-30T20:31:52.472Z,83.50
2018-03-30T20:34:19.463Z,83.39
2018-03-30T20:36:46.564Z,83.49
2018-03-30T20:39:15.065Z,83.71
2018-03-30T20:41:44.848Z,83.58
2018-03-30T20:44:12.719Z,83.60
2018-03-30T20:46:40.706Z,83.79
2018-03-30T20:49:09.561Z,84.01
2018-03-30T20:51:36.985Z,84.29
2018-03-30T20:54:04.764Z,83.74
2018-03-30T20:56:33.470Z,83.61
2018-03-30T20:59:03.123Z,83.59
2018-03-30T21:01:30.751Z,84.78
2018-03-30T21:03:58.068Z,84.94
2018-03-30T21:06:25.095Z,84.94
2018-03-30T21:08:53.007Z,84.40
2018-03-30T21:11:21.177Z,84.37
2018-03-30T21:13:48.536Z,85.21
2018-03-30T21:16:15.575Z,84.58
2018-03-30T21:18:42.712Z,84.01
2018-03-30T21:21:09.953Z,83.66
2018-03-30T21:23:37.135Z,84.00
2018-03-30T21:26:04.147Z,83.88
2018-03-30T21:28:31.291Z,84.32
2018-03-30T21:31:00.707Z,84.20
2018-03-30T21:33:28.021Z,84.30
2018-03-30T21:35:57.290Z,84.72
2018-03-30T21:38:24.656Z,84.36
2018-03-30T21:40:51.782Z,84.04
2018-03-30T21:43:18.918Z,83.98
2018-03-30T21:45:45.915Z,84.40
2018-03-30T21:50:55.229Z,84.94
2018-03-30T21:53:22.757Z,84.86
2018-03-30T21:55:50.254Z,84.68
2018-03-30T21:58:17.967Z,85.32
2018-03-30T22:00:46.760Z,85.05
2018-03-30T22:03:15.037Z,85.14
2018-03-30T22:05:43.232Z,84.53
2018-03-30T22:08:11.573Z,84.68
2018-03-30T22:10:38.679Z,84.98
2018-03-30T22:13:05.697Z,84.87
2018-03-30T22:15:32.688Z,85.37
2018-03-30T22:17:59.728Z,84.98
2018-03-30T22:20:30.009Z,84.70
2018-03-30T22:22:58.232Z,84.52
2018-03-30T22:25:25.888Z,84.36
2018-03-30T22:27:54.081Z,84.80
2018-03-30T22:30:21.528Z,84.66
2018-03-30T22:32:48.550Z,84.44
2018-03-30T22:35:15.930Z,84.47
2018-03-30T22:37:46.603Z,84.94
2018-03-30T22:40:17.672Z,84.55
2018-03-30T22:42:45.476Z,84.71
2018-03-30T22:45:12.458Z,84.42
2018-03-30T22:47:41.313Z,84.49
2018-03-30T22:50:09.923Z,84.30
2018-03-30T22:52:37.504Z,84.09
2018-03-30T22:55:07.881Z,84.42
2018-03-30T22:57:36.073Z,84.38
2018-03-30T23:00:03.396Z,86.30
2018-03-30T23:02:31.323Z,86.98
2018-03-30T23:04:58.435Z,85.67
2018-03-30T23:07:25.533Z,85.62
2018-03-30T23:09:52.523Z,85.14
2018-03-30T23:12:20.953Z,84.90
2018-03-30T23:14:52.708Z,85.73
2018-03-30T23:17:20.577Z,86.31
2018-03-30T23:19:47.700Z,85.45
2018-03-30T23:22:16.300Z,85.12
2018-03-30T23:24:43.308Z,85.04
2018-03-30T23:27:11.068Z,85.18
2018-03-30T23:29:38.816Z,84.91
2018-03-30T23:32:06.725Z,84.67
2018-03-30T23:34:33.799Z,84.86
2018-03-30T23:37:01.954Z,85.05
2018-03-30T23:39:29.322Z,86.25
2018-03-30T23:41:56.447Z,85.48
2018-03-30T23:44:23.673Z,85.17
2018-03-30T23:46:50.887Z,85.07
2018-03-30T23:49:20.324Z,85.29
2018-03-30T23:51:47.458Z,85.28
2018-03-30T23:54:14.638Z,84.89
2018-03-30T23:56:41.834Z,85.10
2018-03-30T23:59:09.127Z,85.01
